sensor_id;sensor_type;location;lat;lon;timestamp;P1;durP1;ratioP1;P2;durP2;ratioP2
20727;SDS011;10525;50.154;8.198;2022-10-03T00:01:04;41.38;;;14.20;;
20727;SDS011;10525;50.154;8.198;2022-10-03T00:03:41;38.95;;;14.75;;
20727;SDS011;10525;50.154;8.198;2022-10-03T00:06:23;35.70;;;14.32;;
20727;SDS011;10525;50.154;8.198;2022-10-03T00:09:04;36.67;;;14.52;;
20727;SDS011;10525;50.154;8.198;2022-10-03T00:11:57;31.42;;;14.63;;
20727;SDS011;10525;50.154;8.198;2022-10-03T00:14:37;28.25;;;14.48;;
20727;SDS011;10525;50.154;8.198;2022-10-03T00:17:11;33.25;;;14.05;;
20727;SDS011;10525;50.154;8.198;2022-10-03T00:19:54;34.70;;;14.98;;
20727;SDS011;10525;50.154;8.198;2022-10-03T00:22:32;30.65;;;14.02;;
20727;SDS011;10525;50.154;8.198;2022-10-03T00:27:54;33.35;;;13.02;;
20727;SDS011;10525;50.154;8.198;2022-10-03T00:30:47;35.28;;;13.35;;
20727;SDS011;10525;50.154;8.198;2022-10-03T00:33:23;29.35;;;12.80;;
20727;SDS011;10525;50.154;8.198;2022-10-03T00:35:59;25.65;;;13.20;;
20727;SDS011;10525;50.154;8.198;2022-10-03T00:41:41;31.85;;;12.35;;
20727;SDS011;10525;50.154;8.198;2022-10-03T00:44:29;28.73;;;12.05;;
20727;SDS011;10525;50.154;8.198;2022-10-03T00:47:36;35.58;;;13.32;;
20727;SDS011;10525;50.154;8.198;2022-10-03T00:50:16;36.72;;;14.00;;
20727;SDS011;10525;50.154;8.198;2022-10-03T00:52:57;40.00;;;14.88;;
20727;SDS011;10525;50.154;8.198;2022-10-03T00:55:45;33.53;;;14.48;;
20727;SDS011;10525;50.154;8.198;2022-10-03T00:58:25;43.20;;;13.60;;
20727;SDS011;10525;50.154;8.198;2022-10-03T01:01:20;43.10;;;14.13;;
20727;SDS011;10525;50.154;8.198;2022-10-03T01:04:02;43.55;;;14.52;;
20727;SDS011;10525;50.154;8.198;2022-10-03T01:06:40;54.40;;;16.17;;
20727;SDS011;10525;50.154;8.198;2022-10-03T01:09:14;42.67;;;15.02;;
20727;SDS011;10525;50.154;8.198;2022-10-03T01:12:02;41.08;;;14.88;;
20727;SDS011;10525;50.154;8.198;2022-10-03T01:14:46;38.97;;;13.68;;
20727;SDS011;10525;50.154;8.198;2022-10-03T01:17:29;40.35;;;14.63;;
20727;SDS011;10525;50.154;8.198;2022-10-03T01:20:13;35.00;;;14.10;;
20727;SDS011;10525;50.154;8.198;2022-10-03T01:22:59;45.58;;;13.93;;
20727;SDS011;10525;50.154;8.198;2022-10-03T01:25:51;31.20;;;13.25;;
20727;SDS011;10525;50.154;8.198;2022-10-03T01:28:31;28.60;;;13.50;;
20727;SDS011;10525;50.154;8.198;2022-10-03T01:31:24;31.77;;;13.05;;
20727;SDS011;10525;50.154;8.198;2022-10-03T01:33:59;30.67;;;12.85;;
20727;SDS011;10525;50.154;8.198;2022-10-03T01:36:31;31.27;;;12.45;;
20727;SDS011;10525;50.154;8.198;2022-10-03T01:39:06;33.05;;;12.88;;
20727;SDS011;10525;50.154;8.198;2022-10-03T01:41:43;39.00;;;13.35;;
20727;SDS011;10525;50.154;8.198;2022-10-03T01:44:17;38.55;;;12.63;;
20727;SDS011;10525;50.154;8.198;2022-10-03T01:46:49;34.08;;;13.80;;
20727;SDS011;10525;50.154;8.198;2022-10-03T01:49:21;30.90;;;13.80;;
20727;SDS011;10525;50.154;8.198;2022-10-03T01:51:53;25.80;;;11.20;;
20727;SDS011;10525;50.154;8.198;2022-10-03T01:54:35;39.60;;;13.43;;
20727;SDS011;10525;50.154;8.198;2022-10-03T01:57:09;35.70;;;13.38;;
20727;SDS011;10525;50.154;8.198;2022-10-03T01:59:44;49.78;;;15.02;;
20727;SDS011;10525;50.154;8.198;2022-10-03T02:02:20;41.80;;;13.27;;
20727;SDS011;10525;50.154;8.198;2022-10-03T02:04:58;37.75;;;13.65;;
20727;SDS011;10525;50.154;8.198;2022-10-03T02:07:33;51.13;;;13.48;;
20727;SDS011;10525;50.154;8.198;2022-10-03T02:10:06;48.95;;;15.05;;
20727;SDS011;10525;50.154;8.198;2022-10-03T02:12:45;41.80;;;15.23;;
20727;SDS011;10525;50.154;8.198;2022-10-03T02:15:19;55.60;;;14.70;;
20727;SDS011;10525;50.154;8.198;2022-10-03T02:17:53;35.45;;;14.43;;
20727;SDS011;10525;50.154;8.198;2022-10-03T02:20:24;59.65;;;14.55;;
20727;SDS011;10525;50.154;8.198;2022-10-03T02:22:56;41.50;;;14.90;;
20727;SDS011;10525;50.154;8.198;2022-10-03T02:25:24;57.65;;;16.05;;
20727;SDS011;10525;50.154;8.198;2022-10-03T02:31:03;48.92;;;14.82;;
20727;SDS011;10525;50.154;8.198;2022-10-03T02:39:57;43.55;;;13.52;;
20727;SDS011;10525;50.154;8.198;2022-10-03T02:42:54;31.83;;;12.43;;
20727;SDS011;10525;50.154;8.198;2022-10-03T02:45:51;39.05;;;12.90;;
20727;SDS011;10525;50.154;8.198;2022-10-03T02:54:45;40.60;;;12.95;;
20727;SDS011;10525;50.154;8.198;2022-10-03T02:57:29;53.92;;;14.27;;
20727;SDS011;10525;50.154;8.198;2022-10-03T03:00:18;35.00;;;12.52;;
20727;SDS011;10525;50.154;8.198;2022-10-03T03:05:58;50.42;;;13.88;;
20727;SDS011;10525;50.154;8.198;2022-10-03T03:08:59;50.38;;;13.95;;
20727;SDS011;10525;50.154;8.198;2022-10-03T03:17:55;35.08;;;12.88;;
20727;SDS011;10525;50.154;8.198;2022-10-03T03:20:34;40.13;;;13.77;;
20727;SDS011;10525;50.154;8.198;2022-10-03T03:29:19;54.05;;;16.10;;
20727;SDS011;10525;50.154;8.198;2022-10-03T03:31:54;52.75;;;15.75;;
20727;SDS011;10525;50.154;8.198;2022-10-03T03:34:29;46.47;;;15.63;;
20727;SDS011;10525;50.154;8.198;2022-10-03T03:37:03;45.60;;;15.63;;
20727;SDS011;10525;50.154;8.198;2022-10-03T03:39:45;48.42;;;16.25;;
20727;SDS011;10525;50.154;8.198;2022-10-03T03:42:24;46.10;;;14.60;;
20727;SDS011;10525;50.154;8.198;2022-10-03T03:45:07;54.13;;;16.75;;
20727;SDS011;10525;50.154;8.198;2022-10-03T03:47:52;53.47;;;16.48;;
20727;SDS011;10525;50.154;8.198;2022-10-03T03:50:30;47.83;;;16.25;;
20727;SDS011;10525;50.154;8.198;2022-10-03T03:56:00;54.60;;;18.02;;
20727;SDS011;10525;50.154;8.198;2022-10-03T03:58:45;50.03;;;16.52;;
20727;SDS011;10525;50.154;8.198;2022-10-03T04:01:24;53.65;;;14.98;;
20727;SDS011;10525;50.154;8.198;2022-10-03T04:04:07;50.70;;;15.80;;
20727;SDS011;10525;50.154;8.198;2022-10-03T04:06:46;47.78;;;16.42;;
20727;SDS011;10525;50.154;8.198;2022-10-03T04:09:45;43.42;;;15.38;;
20727;SDS011;10525;50.154;8.198;2022-10-03T04:12:42;39.92;;;15.23;;
20727;SDS011;10525;50.154;8.198;2022-10-03T04:15:24;44.30;;;16.10;;
20727;SDS011;10525;50.154;8.198;2022-10-03T04:18:22;54.78;;;16.48;;
20727;SDS011;10525;50.154;8.198;2022-10-03T04:21:21;50.30;;;15.63;;
20727;SDS011;10525;50.154;8.198;2022-10-03T04:30:08;50.00;;;15.18;;
20727;SDS011;10525;50.154;8.198;2022-10-03T04:35:45;49.72;;;15.38;;
20727;SDS011;10525;50.154;8.198;2022-10-03T04:38:22;37.90;;;14.23;;
20727;SDS011;10525;50.154;8.198;2022-10-03T04:41:09;44.88;;;16.48;;
20727;SDS011;10525;50.154;8.198;2022-10-03T04:43:49;52.42;;;17.10;;
20727;SDS011;10525;50.154;8.198;2022-10-03T04:46:24;53.03;;;16.10;;
20727;SDS011;10525;50.154;8.198;2022-10-03T04:48:56;42.70;;;15.25;;
20727;SDS011;10525;50.154;8.198;2022-10-03T04:51:33;47.63;;;17.17;;
20727;SDS011;10525;50.154;8.198;2022-10-03T04:54:11;40.25;;;13.25;;
20727;SDS011;10525;50.154;8.198;2022-10-03T04:56:49;37.63;;;14.23;;
20727;SDS011;10525;50.154;8.198;2022-10-03T05:02:09;40.30;;;13.52;;
20727;SDS011;10525;50.154;8.198;2022-10-03T05:04:53;45.60;;;14.23;;
20727;SDS011;10525;50.154;8.198;2022-10-03T05:07:30;47.95;;;15.32;;
20727;SDS011;10525;50.154;8.198;2022-10-03T05:10:16;38.13;;;13.32;;
20727;SDS011;10525;50.154;8.198;2022-10-03T05:12:56;35.63;;;13.90;;
20727;SDS011;10525;50.154;8.198;2022-10-03T05:15:31;35.80;;;12.60;;
20727;SDS011;10525;50.154;8.198;2022-10-03T05:18:09;44.05;;;15.25;;
20727;SDS011;10525;50.154;8.198;2022-10-03T05:20:46;44.47;;;14.23;;
20727;SDS011;10525;50.154;8.198;2022-10-03T05:23:22;37.67;;;13.98;;
20727;SDS011;10525;50.154;8.198;2022-10-03T05:25:57;40.13;;;15.30;;
20727;SDS011;10525;50.154;8.198;2022-10-03T05:28:32;43.10;;;15.20;;
20727;SDS011;10525;50.154;8.198;2022-10-03T05:31:15;35.88;;;15.52;;
20727;SDS011;10525;50.154;8.198;2022-10-03T05:33:53;44.05;;;15.05;;
20727;SDS011;10525;50.154;8.198;2022-10-03T05:36:28;47.65;;;16.73;;
20727;SDS011;10525;50.154;8.198;2022-10-03T05:42:10;42.45;;;15.43;;
20727;SDS011;10525;50.154;8.198;2022-10-03T05:44:54;52.05;;;16.70;;
20727;SDS011;10525;50.154;8.198;2022-10-03T05:47:29;45.97;;;16.05;;
20727;SDS011;10525;50.154;8.198;2022-10-03T05:53:52;54.33;;;15.57;;
20727;SDS011;10525;50.154;8.198;2022-10-03T05:56:47;64.30;;;16.75;;
20727;SDS011;10525;50.154;8.198;2022-10-03T06:00:04;50.00;;;15.77;;
20727;SDS011;10525;50.154;8.198;2022-10-03T06:02:52;44.80;;;17.20;;
20727;SDS011;10525;50.154;8.198;2022-10-03T06:05:43;44.90;;;16.25;;
20727;SDS011;10525;50.154;8.198;2022-10-03T06:11:33;56.58;;;16.95;;
20727;SDS011;10525;50.154;8.198;2022-10-03T06:14:16;46.00;;;17.33;;
20727;SDS011;10525;50.154;8.198;2022-10-03T06:20:23;57.60;;;16.65;;
20727;SDS011;10525;50.154;8.198;2022-10-03T06:23:16;34.88;;;16.30;;
20727;SDS011;10525;50.154;8.198;2022-10-03T06:26:01;44.30;;;15.50;;
20727;SDS011;10525;50.154;8.198;2022-10-03T06:31:57;42.25;;;15.52;;
20727;SDS011;10525;50.154;8.198;2022-10-03T06:41:19;43.90;;;16.92;;
20727;SDS011;10525;50.154;8.198;2022-10-03T06:44:33;37.13;;;14.77;;
20727;SDS011;10525;50.154;8.198;2022-10-03T06:47:20;38.70;;;13.77;;
20727;SDS011;10525;50.154;8.198;2022-10-03T06:53:07;41.50;;;14.60;;
20727;SDS011;10525;50.154;8.198;2022-10-03T06:58:56;31.50;;;12.73;;
20727;SDS011;10525;50.154;8.198;2022-10-03T07:01:42;36.90;;;14.07;;
20727;SDS011;10525;50.154;8.198;2022-10-03T07:10:45;34.75;;;14.15;;
20727;SDS011;10525;50.154;8.198;2022-10-03T07:13:34;37.17;;;13.45;;
20727;SDS011;10525;50.154;8.198;2022-10-03T07:16:16;32.30;;;12.45;;
20727;SDS011;10525;50.154;8.198;2022-10-03T07:19:11;32.95;;;13.13;;
20727;SDS011;10525;50.154;8.198;2022-10-03T07:22:04;45.67;;;14.35;;
20727;SDS011;10525;50.154;8.198;2022-10-03T07:28:07;27.90;;;11.75;;
20727;SDS011;10525;50.154;8.198;2022-10-03T07:30:54;43.60;;;12.30;;
20727;SDS011;10525;50.154;8.198;2022-10-03T07:33:34;40.45;;;11.65;;
20727;SDS011;10525;50.154;8.198;2022-10-03T07:36:21;37.47;;;10.52;;
20727;SDS011;10525;50.154;8.198;2022-10-03T07:45:22;21.15;;;10.40;;
20727;SDS011;10525;50.154;8.198;2022-10-03T07:48:13;31.40;;;9.93;;
20727;SDS011;10525;50.154;8.198;2022-10-03T07:56:56;26.17;;;9.80;;
20727;SDS011;10525;50.154;8.198;2022-10-03T07:59:47;26.85;;;9.40;;
20727;SDS011;10525;50.154;8.198;2022-10-03T08:02:41;26.10;;;9.95;;
20727;SDS011;10525;50.154;8.198;2022-10-03T08:05:30;29.20;;;10.20;;
20727;SDS011;10525;50.154;8.198;2022-10-03T08:08:21;31.40;;;10.27;;
20727;SDS011;10525;50.154;8.198;2022-10-03T08:14:31;20.67;;;8.63;;
20727;SDS011;10525;50.154;8.198;2022-10-03T08:17:30;15.90;;;7.88;;
20727;SDS011;10525;50.154;8.198;2022-10-03T08:20:27;21.27;;;7.78;;
20727;SDS011;10525;50.154;8.198;2022-10-03T08:23:14;15.82;;;6.85;;
20727;SDS011;10525;50.154;8.198;2022-10-03T08:26:07;16.15;;;6.65;;
20727;SDS011;10525;50.154;8.198;2022-10-03T08:28:46;16.50;;;7.22;;
20727;SDS011;10525;50.154;8.198;2022-10-03T08:31:27;15.32;;;6.22;;
20727;SDS011;10525;50.154;8.198;2022-10-03T08:34:25;17.63;;;6.80;;
20727;SDS011;10525;50.154;8.198;2022-10-03T08:37:27;18.52;;;7.22;;
20727;SDS011;10525;50.154;8.198;2022-10-03T08:40:34;15.40;;;7.45;;
20727;SDS011;10525;50.154;8.198;2022-10-03T08:46:38;20.23;;;6.25;;
20727;SDS011;10525;50.154;8.198;2022-10-03T08:49:39;16.23;;;5.88;;
20727;SDS011;10525;50.154;8.198;2022-10-03T08:52:39;12.98;;;6.03;;
20727;SDS011;10525;50.154;8.198;2022-10-03T08:58:14;14.13;;;6.13;;
20727;SDS011;10525;50.154;8.198;2022-10-03T09:01:10;14.70;;;5.80;;
20727;SDS011;10525;50.154;8.198;2022-10-03T09:07:07;19.83;;;6.78;;
20727;SDS011;10525;50.154;8.198;2022-10-03T09:10:04;17.88;;;6.25;;
20727;SDS011;10525;50.154;8.198;2022-10-03T09:12:59;11.15;;;6.40;;
20727;SDS011;10525;50.154;8.198;2022-10-03T09:15:59;12.93;;;6.40;;
20727;SDS011;10525;50.154;8.198;2022-10-03T09:18:51;12.38;;;6.25;;
20727;SDS011;10525;50.154;8.198;2022-10-03T09:21:34;8.85;;;5.20;;
20727;SDS011;10525;50.154;8.198;2022-10-03T09:24:26;8.32;;;5.88;;
20727;SDS011;10525;50.154;8.198;2022-10-03T09:27:21;11.18;;;5.43;;
20727;SDS011;10525;50.154;8.198;2022-10-03T09:30:14;17.75;;;5.95;;
20727;SDS011;10525;50.154;8.198;2022-10-03T09:35:54;10.63;;;5.00;;
20727;SDS011;10525;50.154;8.198;2022-10-03T09:38:49;13.32;;;5.70;;
20727;SDS011;10525;50.154;8.198;2022-10-03T09:41:37;18.02;;;5.72;;
20727;SDS011;10525;50.154;8.198;2022-10-03T09:44:38;8.30;;;5.70;;
20727;SDS011;10525;50.154;8.198;2022-10-03T09:47:32;10.77;;;5.07;;
20727;SDS011;10525;50.154;8.198;2022-10-03T09:50:34;15.65;;;5.13;;
20727;SDS011;10525;50.154;8.198;2022-10-03T10:05:48;10.95;;;4.40;;
20727;SDS011;10525;50.154;8.198;2022-10-03T10:11:55;11.63;;;4.57;;
20727;SDS011;10525;50.154;8.198;2022-10-03T10:14:55;12.20;;;5.15;;
20727;SDS011;10525;50.154;8.198;2022-10-03T10:17:52;11.15;;;5.00;;
20727;SDS011;10525;50.154;8.198;2022-10-03T10:20:58;4.72;;;4.10;;
20727;SDS011;10525;50.154;8.198;2022-10-03T10:23:51;7.13;;;4.65;;
20727;SDS011;10525;50.154;8.198;2022-10-03T10:26:33;8.23;;;4.32;;
20727;SDS011;10525;50.154;8.198;2022-10-03T10:29:38;10.32;;;3.85;;
20727;SDS011;10525;50.154;8.198;2022-10-03T10:35:28;10.90;;;4.13;;
20727;SDS011;10525;50.154;8.198;2022-10-03T10:47:47;12.88;;;4.28;;
20727;SDS011;10525;50.154;8.198;2022-10-03T10:57:08;4.43;;;3.63;;
20727;SDS011;10525;50.154;8.198;2022-10-03T11:09:14;5.45;;;3.03;;
20727;SDS011;10525;50.154;8.198;2022-10-03T11:12:04;4.18;;;2.90;;
20727;SDS011;10525;50.154;8.198;2022-10-03T11:18:06;7.38;;;2.80;;
20727;SDS011;10525;50.154;8.198;2022-10-03T11:21:14;3.33;;;2.70;;
20727;SDS011;10525;50.154;8.198;2022-10-03T11:27:03;3.30;;;2.75;;
20727;SDS011;10525;50.154;8.198;2022-10-03T11:30:02;4.65;;;3.00;;
20727;SDS011;10525;50.154;8.198;2022-10-03T11:38:45;4.78;;;3.17;;
20727;SDS011;10525;50.154;8.198;2022-10-03T11:41:27;6.75;;;3.30;;
20727;SDS011;10525;50.154;8.198;2022-10-03T11:44:05;7.78;;;2.80;;
20727;SDS011;10525;50.154;8.198;2022-10-03T11:47:00;6.07;;;2.80;;
20727;SDS011;10525;50.154;8.198;2022-10-03T11:49:42;7.93;;;2.92;;
20727;SDS011;10525;50.154;8.198;2022-10-03T11:52:25;2.67;;;2.47;;
20727;SDS011;10525;50.154;8.198;2022-10-03T11:55:13;7.15;;;3.13;;
20727;SDS011;10525;50.154;8.198;2022-10-03T11:57:52;7.35;;;2.85;;
20727;SDS011;10525;50.154;8.198;2022-10-03T12:00:28;6.88;;;3.58;;
20727;SDS011;10525;50.154;8.198;2022-10-03T12:03:08;6.95;;;3.08;;
20727;SDS011;10525;50.154;8.198;2022-10-03T12:05:44;2.67;;;2.47;;
20727;SDS011;10525;50.154;8.198;2022-10-03T12:08:18;4.63;;;3.03;;
20727;SDS011;10525;50.154;8.198;2022-10-03T12:11:09;8.90;;;3.40;;
20727;SDS011;10525;50.154;8.198;2022-10-03T12:13:46;6.25;;;3.00;;
20727;SDS011;10525;50.154;8.198;2022-10-03T12:16:22;6.07;;;3.35;;
20727;SDS011;10525;50.154;8.198;2022-10-03T12:18:54;4.05;;;2.67;;
20727;SDS011;10525;50.154;8.198;2022-10-03T12:21:28;5.85;;;2.90;;
20727;SDS011;10525;50.154;8.198;2022-10-03T12:24:15;4.68;;;3.30;;
20727;SDS011;10525;50.154;8.198;2022-10-03T12:26:50;3.08;;;2.97;;
20727;SDS011;10525;50.154;8.198;2022-10-03T12:29:23;10.20;;;3.88;;
20727;SDS011;10525;50.154;8.198;2022-10-03T12:34:45;7.78;;;3.45;;
20727;SDS011;10525;50.154;8.198;2022-10-03T12:37:30;12.13;;;4.00;;
20727;SDS011;10525;50.154;8.198;2022-10-03T12:40:05;6.03;;;4.00;;
20727;SDS011;10525;50.154;8.198;2022-10-03T12:42:43;4.50;;;3.20;;
20727;SDS011;10525;50.154;8.198;2022-10-03T12:45:22;8.15;;;3.75;;
20727;SDS011;10525;50.154;8.198;2022-10-03T12:47:56;4.03;;;3.20;;
20727;SDS011;10525;50.154;8.198;2022-10-03T12:50:42;8.77;;;3.75;;
20727;SDS011;10525;50.154;8.198;2022-10-03T12:53:27;7.25;;;4.05;;
20727;SDS011;10525;50.154;8.198;2022-10-03T12:56:09;3.83;;;2.80;;
20727;SDS011;10525;50.154;8.198;2022-10-03T12:58:48;10.20;;;3.45;;
20727;SDS011;10525;50.154;8.198;2022-10-03T13:01:31;7.30;;;4.03;;
20727;SDS011;10525;50.154;8.198;2022-10-03T13:04:08;4.13;;;2.85;;
20727;SDS011;10525;50.154;8.198;2022-10-03T13:06:49;3.53;;;2.90;;
20727;SDS011;10525;50.154;8.198;2022-10-03T13:09:29;5.20;;;3.13;;
20727;SDS011;10525;50.154;8.198;2022-10-03T13:12:17;4.18;;;2.80;;
20727;SDS011;10525;50.154;8.198;2022-10-03T13:18:03;3.08;;;2.88;;
20727;SDS011;10525;50.154;8.198;2022-10-03T13:20:41;5.55;;;3.08;;
20727;SDS011;10525;50.154;8.198;2022-10-03T13:23:16;3.35;;;3.08;;
20727;SDS011;10525;50.154;8.198;2022-10-03T13:25:51;5.28;;;2.92;;
20727;SDS011;10525;50.154;8.198;2022-10-03T13:28:25;3.17;;;2.80;;
20727;SDS011;10525;50.154;8.198;2022-10-03T13:30:57;7.32;;;3.13;;
20727;SDS011;10525;50.154;8.198;2022-10-03T13:33:31;3.80;;;2.63;;
20727;SDS011;10525;50.154;8.198;2022-10-03T13:36:02;7.57;;;3.47;;
20727;SDS011;10525;50.154;8.198;2022-10-03T13:38:42;4.75;;;3.20;;
20727;SDS011;10525;50.154;8.198;2022-10-03T13:41:27;3.20;;;3.00;;
20727;SDS011;10525;50.154;8.198;2022-10-03T13:43:58;3.50;;;3.30;;
20727;SDS011;10525;50.154;8.198;2022-10-03T13:46:28;7.85;;;3.70;;
20727;SDS011;10525;50.154;8.198;2022-10-03T13:49:04;3.72;;;3.10;;
20727;SDS011;10525;50.154;8.198;2022-10-03T13:51:44;5.20;;;3.50;;
20727;SDS011;10525;50.154;8.198;2022-10-03T13:54:17;3.30;;;2.83;;
20727;SDS011;10525;50.154;8.198;2022-10-03T13:56:51;4.05;;;3.20;;
20727;SDS011;10525;50.154;8.198;2022-10-03T13:59:28;3.83;;;3.03;;
20727;SDS011;10525;50.154;8.198;2022-10-03T14:02:19;7.07;;;3.38;;
20727;SDS011;10525;50.154;8.198;2022-10-03T14:05:16;9.57;;;3.17;;
20727;SDS011;10525;50.154;8.198;2022-10-03T14:08:06;9.13;;;3.65;;
20727;SDS011;10525;50.154;8.198;2022-10-03T14:10:52;9.35;;;3.50;;
20727;SDS011;10525;50.154;8.198;2022-10-03T14:13:41;10.75;;;4.13;;
20727;SDS011;10525;50.154;8.198;2022-10-03T14:16:18;10.25;;;3.65;;
20727;SDS011;10525;50.154;8.198;2022-10-03T14:18:53;4.03;;;3.47;;
20727;SDS011;10525;50.154;8.198;2022-10-03T14:21:47;8.50;;;3.58;;
20727;SDS011;10525;50.154;8.198;2022-10-03T14:24:30;7.43;;;3.60;;
20727;SDS011;10525;50.154;8.198;2022-10-03T14:27:13;5.25;;;3.08;;
20727;SDS011;10525;50.154;8.198;2022-10-03T14:29:57;4.32;;;3.50;;
20727;SDS011;10525;50.154;8.198;2022-10-03T14:32:31;3.70;;;3.35;;
20727;SDS011;10525;50.154;8.198;2022-10-03T14:35:06;7.35;;;3.75;;
20727;SDS011;10525;50.154;8.198;2022-10-03T14:37:43;5.25;;;2.50;;
20727;SDS011;10525;50.154;8.198;2022-10-03T14:40:18;6.07;;;3.83;;
20727;SDS011;10525;50.154;8.198;2022-10-03T14:42:50;8.38;;;3.40;;
20727;SDS011;10525;50.154;8.198;2022-10-03T14:45:24;14.25;;;3.60;;
20727;SDS011;10525;50.154;8.198;2022-10-03T14:47:56;3.45;;;3.20;;
20727;SDS011;10525;50.154;8.198;2022-10-03T14:50:29;8.23;;;3.53;;
20727;SDS011;10525;50.154;8.198;2022-10-03T14:52:59;9.13;;;3.63;;
20727;SDS011;10525;50.154;8.198;2022-10-03T14:55:30;4.57;;;4.00;;
20727;SDS011;10525;50.154;8.198;2022-10-03T14:58:03;5.82;;;3.30;;
20727;SDS011;10525;50.154;8.198;2022-10-03T15:00:33;6.43;;;3.33;;
20727;SDS011;10525;50.154;8.198;2022-10-03T15:03:20;9.20;;;4.32;;
20727;SDS011;10525;50.154;8.198;2022-10-03T15:05:55;5.10;;;3.60;;
20727;SDS011;10525;50.154;8.198;2022-10-03T15:08:28;3.78;;;3.35;;
20727;SDS011;10525;50.154;8.198;2022-10-03T15:10:59;4.70;;;3.30;;
20727;SDS011;10525;50.154;8.198;2022-10-03T15:13:27;4.28;;;3.30;;
20727;SDS011;10525;50.154;8.198;2022-10-03T15:16:00;3.80;;;3.17;;
20727;SDS011;10525;50.154;8.198;2022-10-03T15:18:27;4.30;;;3.92;;
20727;SDS011;10525;50.154;8.198;2022-10-03T15:20:56;4.82;;;3.08;;
20727;SDS011;10525;50.154;8.198;2022-10-03T15:23:25;6.03;;;3.35;;
20727;SDS011;10525;50.154;8.198;2022-10-03T15:25:58;7.82;;;3.60;;
20727;SDS011;10525;50.154;8.198;2022-10-03T15:28:26;9.60;;;4.13;;
20727;SDS011;10525;50.154;8.198;2022-10-03T15:31:06;6.25;;;3.70;;
20727;SDS011;10525;50.154;8.198;2022-10-03T15:33:34;5.82;;;3.40;;
20727;SDS011;10525;50.154;8.198;2022-10-03T15:36:11;6.22;;;3.92;;
20727;SDS011;10525;50.154;8.198;2022-10-03T15:38:43;6.65;;;3.70;;
20727;SDS011;10525;50.154;8.198;2022-10-03T15:41:16;9.48;;;4.00;;
20727;SDS011;10525;50.154;8.198;2022-10-03T15:43:49;7.85;;;5.05;;
20727;SDS011;10525;50.154;8.198;2022-10-03T15:46:27;7.93;;;4.30;;
20727;SDS011;10525;50.154;8.198;2022-10-03T15:48:58;4.43;;;4.07;;
20727;SDS011;10525;50.154;8.198;2022-10-03T15:51:28;11.48;;;4.93;;
20727;SDS011;10525;50.154;8.198;2022-10-03T15:53:58;8.65;;;4.22;;
20727;SDS011;10525;50.154;8.198;2022-10-03T15:56:28;11.77;;;4.75;;
20727;SDS011;10525;50.154;8.198;2022-10-03T15:59:00;4.80;;;4.22;;
20727;SDS011;10525;50.154;8.198;2022-10-03T16:01:32;19.50;;;6.60;;
20727;SDS011;10525;50.154;8.198;2022-10-03T16:04:03;12.95;;;4.70;;
20727;SDS011;10525;50.154;8.198;2022-10-03T16:06:33;4.80;;;4.40;;
20727;SDS011;10525;50.154;8.198;2022-10-03T16:09:14;6.35;;;4.45;;
20727;SDS011;10525;50.154;8.198;2022-10-03T16:11:50;7.13;;;4.85;;
20727;SDS011;10525;50.154;8.198;2022-10-03T16:14:25;10.05;;;4.68;;
20727;SDS011;10525;50.154;8.198;2022-10-03T16:16:54;9.07;;;4.63;;
20727;SDS011;10525;50.154;8.198;2022-10-03T16:19:26;10.27;;;5.32;;
20727;SDS011;10525;50.154;8.198;2022-10-03T16:22:01;5.40;;;4.75;;
20727;SDS011;10525;50.154;8.198;2022-10-03T16:24:39;16.52;;;5.97;;
20727;SDS011;10525;50.154;8.198;2022-10-03T16:27:11;9.75;;;4.97;;
20727;SDS011;10525;50.154;8.198;2022-10-03T16:29:42;9.57;;;5.30;;
20727;SDS011;10525;50.154;8.198;2022-10-03T16:32:15;9.70;;;6.13;;
20727;SDS011;10525;50.154;8.198;2022-10-03T16:34:45;9.05;;;5.95;;
20727;SDS011;10525;50.154;8.198;2022-10-03T16:37:15;9.23;;;5.93;;
20727;SDS011;10525;50.154;8.198;2022-10-03T16:39:46;17.38;;;7.82;;
20727;SDS011;10525;50.154;8.198;2022-10-03T16:42:20;8.60;;;5.85;;
20727;SDS011;10525;50.154;8.198;2022-10-03T16:44:50;6.53;;;4.57;;
20727;SDS011;10525;50.154;8.198;2022-10-03T16:47:25;7.80;;;5.60;;
20727;SDS011;10525;50.154;8.198;2022-10-03T16:49:56;11.52;;;5.60;;
20727;SDS011;10525;50.154;8.198;2022-10-03T16:52:56;12.10;;;6.20;;
20727;SDS011;10525;50.154;8.198;2022-10-03T16:55:27;9.15;;;5.75;;
20727;SDS011;10525;50.154;8.198;2022-10-03T16:57:58;10.20;;;5.18;;
20727;SDS011;10525;50.154;8.198;2022-10-03T17:00:31;11.90;;;5.50;;
20727;SDS011;10525;50.154;8.198;2022-10-03T17:03:16;9.57;;;4.82;;
20727;SDS011;10525;50.154;8.198;2022-10-03T17:05:45;10.60;;;5.15;;
20727;SDS011;10525;50.154;8.198;2022-10-03T17:08:13;11.10;;;5.43;;
20727;SDS011;10525;50.154;8.198;2022-10-03T17:10:45;12.00;;;5.35;;
20727;SDS011;10525;50.154;8.198;2022-10-03T17:13:19;9.32;;;5.22;;
20727;SDS011;10525;50.154;8.198;2022-10-03T17:15:49;7.85;;;5.20;;
20727;SDS011;10525;50.154;8.198;2022-10-03T17:18:22;13.43;;;5.57;;
20727;SDS011;10525;50.154;8.198;2022-10-03T17:20:54;11.93;;;5.53;;
20727;SDS011;10525;50.154;8.198;2022-10-03T17:23:27;8.55;;;5.47;;
20727;SDS011;10525;50.154;8.198;2022-10-03T17:26:02;7.25;;;6.13;;
20727;SDS011;10525;50.154;8.198;2022-10-03T17:28:36;16.45;;;6.28;;
20727;SDS011;10525;50.154;8.198;2022-10-03T17:31:06;10.68;;;6.30;;
20727;SDS011;10525;50.154;8.198;2022-10-03T17:33:47;12.43;;;4.90;;
20727;SDS011;10525;50.154;8.198;2022-10-03T17:36:32;11.55;;;5.75;;
20727;SDS011;10525;50.154;8.198;2022-10-03T17:39:20;12.18;;;5.53;;
20727;SDS011;10525;50.154;8.198;2022-10-03T17:42:00;11.82;;;5.50;;
20727;SDS011;10525;50.154;8.198;2022-10-03T17:44:34;15.55;;;6.00;;
20727;SDS011;10525;50.154;8.198;2022-10-03T17:47:09;15.85;;;6.32;;
20727;SDS011;10525;50.154;8.198;2022-10-03T17:49:44;16.30;;;6.90;;
20727;SDS011;10525;50.154;8.198;2022-10-03T17:52:20;11.48;;;7.43;;
20727;SDS011;10525;50.154;8.198;2022-10-03T17:54:50;10.77;;;6.93;;
20727;SDS011;10525;50.154;8.198;2022-10-03T17:57:22;12.98;;;6.80;;
20727;SDS011;10525;50.154;8.198;2022-10-03T17:59:53;7.80;;;5.47;;
20727;SDS011;10525;50.154;8.198;2022-10-03T18:02:24;11.45;;;5.75;;
20727;SDS011;10525;50.154;8.198;2022-10-03T18:05:02;20.38;;;7.53;;
20727;SDS011;10525;50.154;8.198;2022-10-03T18:07:36;21.52;;;6.65;;
20727;SDS011;10525;50.154;8.198;2022-10-03T18:10:04;10.43;;;6.88;;
20727;SDS011;10525;50.154;8.198;2022-10-03T18:12:42;10.18;;;7.47;;
20727;SDS011;10525;50.154;8.198;2022-10-03T18:15:18;9.23;;;6.80;;
20727;SDS011;10525;50.154;8.198;2022-10-03T18:21:38;12.85;;;5.95;;
20727;SDS011;10525;50.154;8.198;2022-10-03T18:24:23;12.95;;;5.82;;
20727;SDS011;10525;50.154;8.198;2022-10-03T18:27:07;10.10;;;5.45;;
20727;SDS011;10525;50.154;8.198;2022-10-03T18:29:52;15.60;;;5.95;;
20727;SDS011;10525;50.154;8.198;2022-10-03T18:32:23;8.90;;;5.47;;
20727;SDS011;10525;50.154;8.198;2022-10-03T18:34:57;10.68;;;5.60;;
20727;SDS011;10525;50.154;8.198;2022-10-03T18:40:18;17.63;;;6.25;;
20727;SDS011;10525;50.154;8.198;2022-10-03T18:42:50;10.32;;;5.57;;
20727;SDS011;10525;50.154;8.198;2022-10-03T18:45:20;15.18;;;8.35;;
20727;SDS011;10525;50.154;8.198;2022-10-03T18:47:52;14.45;;;7.95;;
20727;SDS011;10525;50.154;8.198;2022-10-03T18:50:25;23.67;;;8.40;;
20727;SDS011;10525;50.154;8.198;2022-10-03T18:52:58;13.70;;;7.90;;
20727;SDS011;10525;50.154;8.198;2022-10-03T18:55:34;25.90;;;7.70;;
20727;SDS011;10525;50.154;8.198;2022-10-03T18:58:08;13.68;;;5.95;;
20727;SDS011;10525;50.154;8.198;2022-10-03T19:00:47;21.92;;;6.80;;